Merryville, Louisiana
Current Conditions -  °F | °C
As of 10:15 AM on Thursday 29 Jan 2015 (Local Time) from KDRI Reporting Station
Haze Haze  
Wind Chill: 59°   Ceiling: 300
Heat Index: 59°   Visibility: 2.5mi
Dew Point: 57°   Wind: 0mph
Humidity: 96%   Direction: NA
Pressure: 30.27"   Gusts: NA
Location:  30.75°N, 93.54°W
Report Text: KDRI 291615Z AUTO 00000KT 2 1/2SM BR OVC003 15/14 A3027 RMK AO2 T01480141
Loading
Personal Weather Stations






























Interactive Weather Map New forecast layout! Learn more

10-Day Weather Forecast

Advertisements
Track Severe Weather on mobile